Time;durP1;ratioP1;P1;durP2;ratioP2;P2;SDS_P1;SDS_P2;PMS_P1;PMS_P2;Temp;Humidity;BMP_temperature;BMP_pressure;BME280_temperature;BME280_humidity;BME280_pressure;Samples;Min_cycle;Max_cycle;Signal;HPM_P1;HPM_P2
2023/05/14 00:00:21;;;;;;;0.20;0.20;;;;;;;19.15;55.72;102099.50;5070975;28;20036;-64
2023/05/14 00:02:46;;;;;;;0.20;0.20;;;;;;;18.69;57.10;102092.53;5070994;28;20028;-65
2023/05/14 00:05:12;;;;;;;0.20;0.20;;;;;;;19.13;56.85;102090.75;5070761;28;20043;-64
2023/05/14 00:07:37;;;;;;;0.20;0.20;;;;;;;19.52;54.48;102095.09;5071210;28;20017;-65
2023/05/14 00:10:03;;;;;;;0.15;0.15;;;;;;;19.07;55.92;102091.75;5070901;28;20040;-65
2023/05/14 00:12:29;;;;;;;0.10;0.10;;;;;;;19.06;56.23;102090.09;5070721;28;20043;-64
2023/05/14 00:14:54;;;;;;;0.20;0.20;;;;;;;18.84;57.13;102087.34;5067690;28;20062;-65
2023/05/14 00:17:20;;;;;;;0.10;0.10;;;;;;;19.65;54.62;102086.56;5076060;28;20158;-64
2023/05/14 00:19:45;;;;;;;0.10;0.10;;;;;;;18.74;57.16;102072.72;5072097;28;20031;-64
2023/05/14 00:22:11;;;;;;;0.10;0.10;;;;;;;18.87;57.78;102077.84;5070699;28;20028;-64
2023/05/14 00:24:36;;;;;;;0.10;0.10;;;;;;;19.38;55.66;102076.69;5069814;28;20036;-64
2023/05/14 00:27:02;;;;;;;0.10;0.10;;;;;;;19.12;56.59;102070.84;5071085;28;20037;-66
2023/05/14 00:29:28;;;;;;;0.20;0.20;;;;;;;19.49;55.33;102062.06;5071275;28;20028;-64
2023/05/14 00:31:53;;;;;;;0.40;0.20;;;;;;;19.58;54.05;102058.66;5071295;28;20024;-65
2023/05/14 00:34:19;;;;;;;0.17;0.17;;;;;;;19.33;55.04;102055.63;5071651;28;20154;-64
2023/05/14 00:36:44;;;;;;;0.20;0.20;;;;;;;18.32;58.36;102054.06;5071365;28;20036;-65
2023/05/14 00:39:09;;;;;;;0.20;0.20;;;;;;;19.33;55.20;102050.16;5071212;28;20033;-64
2023/05/14 00:41:35;;;;;;;0.10;0.10;;;;;;;19.42;54.40;102051.34;5069492;28;20025;-65
2023/05/14 00:44:01;;;;;;;0.10;0.10;;;;;;;18.11;58.25;102046.63;5070890;28;20045;-65
2023/05/14 00:46:28;;;;;;;0.20;0.20;;;;;;;18.64;57.88;102046.16;5068212;28;20118;-64
2023/05/14 00:48:54;;;;;;;0.20;0.20;;;;;;;18.79;57.04;102054.56;5069501;28;20036;-65
2023/05/14 00:51:19;;;;;;;0.10;0.10;;;;;;;19.17;56.29;102057.28;5070648;28;20033;-66
2023/05/14 00:53:45;;;;;;;0.20;0.20;;;;;;;19.53;55.03;102041.41;5069653;28;20036;-65
2023/05/14 00:56:12;;;;;;;0.20;0.20;;;;;;;19.51;54.57;102044.41;5052999;28;20064;-65
2023/05/14 00:58:37;;;;;;;0.20;0.20;;;;;;;19.07;55.58;102038.06;5069712;28;20052;-65
2023/05/14 01:01:03;;;;;;;0.20;0.20;;;;;;;17.81;59.70;102040.63;5071054;28;20059;-64
2023/05/14 01:03:30;;;;;;;0.10;0.10;;;;;;;19.00;56.87;102039.34;5069348;28;20392;-64
2023/05/14 01:06:16;;;;;;;0.20;0.20;;;;;;;18.99;56.71;102041.22;5061094;28;20033;-64
2023/05/14 01:08:54;;;;;;;0.10;0.10;;;;;;;19.30;56.21;102037.03;5071012;28;20075;-64
2023/05/14 01:11:31;;;;;;;0.10;0.10;;;;;;;18.19;59.52;102035.34;5069118;28;20037;-65
2023/05/14 01:13:59;;;;;;;0.28;0.28;;;;;;;18.67;57.79;102031.25;5069343;28;20024;-66
2023/05/14 01:16:26;;;;;;;0.20;0.20;;;;;;;18.19;59.55;102034.50;5071281;28;20020;-65
2023/05/14 01:18:53;;;;;;;0.30;0.30;;;;;;;18.86;56.96;102038.06;5052911;28;20032;-64
2023/05/14 01:21:33;;;;;;;0.10;0.10;;;;;;;19.32;55.89;102037.56;5068943;28;20091;-64
2023/05/14 01:23:59;;;;;;;0.20;0.20;;;;;;;18.44;58.66;102036.88;5068776;28;20033;-66
2023/05/14 01:26:24;;;;;;;0.20;0.20;;;;;;;18.54;57.50;102032.41;5070922;28;20091;-64
2023/05/14 01:28:51;;;;;;;0.20;0.20;;;;;;;18.57;58.48;102036.53;5071688;28;20438;-64
2023/05/14 01:31:23;;;;;;;0.10;0.10;;;;;;;18.43;58.23;102030.59;5074740;28;20063;-65
2023/05/14 01:33:50;;;;;;;0.20;0.20;;;;;;;18.85;56.68;102030.97;5042586;28;20420;-65
2023/05/14 01:36:16;;;;;;;0.20;0.20;;;;;;;18.57;57.67;102026.47;5048097;28;20059;-64
2023/05/14 01:38:44;;;;;;;0.20;0.20;;;;;;;18.89;56.35;102022.03;5074093;28;20029;-65
2023/05/14 01:41:11;;;;;;;0.20;0.20;;;;;;;19.20;55.43;102023.25;5073912;28;20073;-65
2023/05/14 01:43:37;;;;;;;0.17;0.17;;;;;;;18.36;57.50;102025.28;5074562;28;20460;-65
2023/05/14 01:46:03;;;;;;;0.10;0.10;;;;;;;18.65;57.13;102019.78;5064479;28;20065;-65
2023/05/14 01:48:29;;;;;;;0.20;0.20;;;;;;;18.92;56.29;102024.25;5064159;28;20047;-66
2023/05/14 01:50:54;;;;;;;0.20;0.20;;;;;;;19.07;55.55;102029.06;5061041;28;20037;-64
2023/05/14 01:53:20;;;;;;;0.20;0.20;;;;;;;19.27;55.21;102018.44;5070197;28;20526;-64
2023/05/14 01:55:45;;;;;;;0.10;0.10;;;;;;;19.50;54.40;102020.13;5054257;28;20079;-66
2023/05/14 01:58:11;;;;;;;0.10;0.10;;;;;;;18.69;56.88;102010.84;5060933;28;20032;-65
2023/05/14 02:00:37;;;;;;;0.10;0.10;;;;;;;19.00;55.60;102010.19;5062775;28;20037;-64
2023/05/14 02:03:02;;;;;;;0.17;0.17;;;;;;;19.24;55.08;102014.31;5050256;28;20069;-65
2023/05/14 02:05:28;;;;;;;0.20;0.20;;;;;;;19.21;55.14;102011.28;5057447;28;20037;-64
2023/05/14 02:07:53;;;;;;;0.13;0.13;;;;;;;19.27;54.80;102000.19;5068779;28;20386;-66
2023/05/14 02:10:18;;;;;;;0.10;0.10;;;;;;;19.08;55.27;102004.31;5054158;28;20052;-64
2023/05/14 02:12:44;;;;;;;0.20;0.20;;;;;;;18.83;56.07;102000.44;5053623;28;20036;-63
2023/05/14 02:15:10;;;;;;;0.10;0.10;;;;;;;18.81;56.45;102002.59;5064260;28;20025;-65
2023/05/14 02:17:35;;;;;;;0.20;0.20;;;;;;;18.74;56.32;102004.66;5069752;28;20198;-65
2023/05/14 02:20:00;;;;;;;0.10;0.10;;;;;;;17.81;60.92;102009.91;5059495;28;20029;-65
2023/05/14 02:22:26;;;;;;;0.20;0.20;;;;;;;18.32;58.22;101999.63;5064618;28;20441;-64
2023/05/14 02:24:51;;;;;;;0.25;0.25;;;;;;;18.18;58.39;102003.75;5063299;28;20037;-65
2023/05/14 02:27:17;;;;;;;0.10;0.10;;;;;;;18.25;58.55;102000.88;5053263;28;20033;-66
2023/05/14 02:29:43;;;;;;;0.20;0.20;;;;;;;18.94;56.62;101999.47;5056907;28;20067;-64
2023/05/14 02:32:08;;;;;;;0.10;0.10;;;;;;;18.29;57.71;102002.88;5066250;28;20021;-65
2023/05/14 02:34:34;;;;;;;0.10;0.10;;;;;;;18.53;57.83;101998.09;5064353;28;20686;-63
2023/05/14 02:36:59;;;;;;;0.10;0.10;;;;;;;18.72;56.97;101994.00;5059237;28;20025;-65
2023/05/14 02:39:25;;;;;;;0.10;0.10;;;;;;;18.57;56.69;101999.25;5068461;28;20039;-64
2023/05/14 02:41:50;;;;;;;0.10;0.10;;;;;;;18.88;56.23;101990.44;5057496;28;20429;-63
2023/05/14 02:44:16;;;;;;;0.20;0.20;;;;;;;18.55;57.10;101995.94;5071535;28;20051;-64
2023/05/14 02:46:42;;;;;;;0.20;0.20;;;;;;;18.76;56.78;101987.00;5073377;28;20032;-65
2023/05/14 02:49:07;;;;;;;0.15;0.15;;;;;;;18.65;56.57;101979.75;5072944;28;20116;-65
2023/05/14 02:51:32;;;;;;;0.20;0.20;;;;;;;18.87;56.08;101985.25;5053900;28;20082;-66
2023/05/14 02:53:58;;;;;;;0.10;0.10;;;;;;;18.94;55.70;101989.41;5073017;28;20029;-65
2023/05/14 02:56:23;;;;;;;0.20;0.20;;;;;;;18.98;55.48;101987.00;5073014;28;20027;-65
2023/05/14 02:58:49;;;;;;;0.10;0.10;;;;;;;18.82;55.96;101977.81;5073258;28;20542;-65
2023/05/14 03:01:14;;;;;;;0.10;0.10;;;;;;;18.85;55.46;101985.47;5072632;28;20039;-65
2023/05/14 03:03:39;;;;;;;0.20;0.20;;;;;;;19.05;55.67;101987.63;5072626;28;20162;-64
2023/05/14 03:06:05;;;;;;;0.17;0.17;;;;;;;18.93;56.18;101987.75;5072607;28;20032;-64
2023/05/14 03:08:30;;;;;;;0.10;0.10;;;;;;;18.07;58.86;101992.94;5072384;28;20051;-64
2023/05/14 03:10:56;;;;;;;0.20;0.20;;;;;;;17.73;59.72;101997.50;5073553;28;20024;-65
2023/05/14 03:13:21;;;;;;;0.20;0.20;;;;;;;18.00;59.94;101993.13;5073346;28;20445;-64
2023/05/14 03:15:47;;;;;;;0.10;0.10;;;;;;;18.41;58.57;101986.44;5072430;28;20029;-65
2023/05/14 03:18:13;;;;;;;0.17;0.17;;;;;;;18.35;58.74;101991.00;5072516;28;20033;-65
2023/05/14 03:20:38;;;;;;;0.20;0.20;;;;;;;18.92;56.78;101985.28;5054218;28;20457;-65
2023/05/14 03:23:04;;;;;;;0.10;0.10;;;;;;;18.44;58.29;101990.59;5071604;28;20078;-64
2023/05/14 03:25:29;;;;;;;0.20;0.20;;;;;;;17.84;60.26;101987.66;5072264;28;20024;-65
2023/05/14 03:27:55;;;;;;;0.20;0.20;;;;;;;17.84;59.46;101990.38;5072104;28;20040;-66
2023/05/14 03:30:20;;;;;;;0.20;0.20;;;;;;;18.42;58.13;101975.31;5072166;28;20032;-64
2023/05/14 03:32:46;;;;;;;0.20;0.20;;;;;;;18.64;57.63;101982.72;5072243;28;20036;-64
2023/05/14 03:35:11;;;;;;;0.10;0.10;;;;;;;18.51;57.30;101973.03;5071944;28;20481;-64
2023/05/14 03:37:36;;;;;;;0.10;0.10;;;;;;;17.90;59.57;101973.91;5072518;28;20025;-66
2023/05/14 03:40:02;;;;;;;0.20;0.20;;;;;;;18.25;58.18;101973.66;5071659;28;20040;-64
2023/05/14 03:42:28;;;;;;;0.20;0.20;;;;;;;18.49;57.70;101971.59;5071910;28;20508;-67
2023/05/14 03:44:53;;;;;;;0.10;0.10;;;;;;;18.09;59.16;101972.59;5053480;28;20037;-65
2023/05/14 03:47:18;;;;;;;0.20;0.20;;;;;;;18.53;57.81;101972.75;5071232;28;20033;-65
2023/05/14 03:49:44;;;;;;;0.20;0.20;;;;;;;18.09;59.65;101969.88;5071475;28;20012;-64
2023/05/14 03:52:09;;;;;;;0.20;0.20;;;;;;;18.15;59.29;101970.78;5071023;28;20033;-65
2023/05/14 03:54:34;;;;;;;0.20;0.20;;;;;;;18.28;58.61;101965.81;5071005;28;20036;-65
2023/05/14 03:57:00;;;;;;;0.20;0.20;;;;;;;18.22;59.11;101974.19;5070917;28;20036;-64
2023/05/14 03:59:26;;;;;;;0.10;0.10;;;;;;;17.88;60.57;101972.50;5071182;28;20036;-64
2023/05/14 04:01:51;;;;;;;0.17;0.17;;;;;;;18.01;60.05;101969.44;5071059;28;20032;-64
2023/05/14 04:04:17;;;;;;;0.20;0.20;;;;;;;18.12;59.31;101972.09;5071471;28;20020;-64
2023/05/14 04:06:42;;;;;;;0.10;0.10;;;;;;;18.62;58.22;101969.34;5071089;28;20512;-64
2023/05/14 04:09:09;;;;;;;0.10;0.10;;;;;;;18.12;59.50;101966.66;5052240;28;20047;-65
2023/05/14 04:11:35;;;;;;;0.20;0.20;;;;;;;18.11;59.51;101961.47;5069759;28;20031;-65
2023/05/14 04:14:05;;;;;;;0.17;0.17;;;;;;;18.34;59.12;101959.38;5070867;28;20024;-64
2023/05/14 04:16:30;;;;;;;0.20;0.20;;;;;;;18.49;58.63;101956.09;5071127;28;20032;-66
2023/05/14 04:18:56;;;;;;;0.20;0.20;;;;;;;18.90;57.49;101957.47;5070475;28;20043;-66
2023/05/14 04:21:21;;;;;;;0.20;0.20;;;;;;;18.24;58.70;101955.66;5070701;28;20033;-65
2023/05/14 04:23:47;;;;;;;0.17;0.17;;;;;;;18.57;58.27;101961.13;5071165;28;20530;-64
2023/05/14 04:26:12;;;;;;;0.20;0.20;;;;;;;18.39;58.87;101955.94;5071208;28;20051;-63
2023/05/14 04:28:37;;;;;;;0.20;0.20;;;;;;;18.51;58.99;101961.28;5071558;28;20036;-64
2023/05/14 04:31:03;;;;;;;0.10;0.10;;;;;;;18.46;58.53;101956.59;5070332;28;20094;-65
2023/05/14 04:33:28;;;;;;;0.13;0.13;;;;;;;18.72;57.92;101955.88;5069788;28;20039;-66
2023/05/14 04:35:54;;;;;;;0.20;0.20;;;;;;;18.41;59.19;101961.94;5070081;28;20029;-65
2023/05/14 04:38:19;;;;;;;0.10;0.10;;;;;;;17.45;62.24;101956.75;5070349;28;20481;-65
2023/05/14 04:40:44;;;;;;;0.10;0.10;;;;;;;18.13;60.64;101968.31;5070320;28;20078;-65
2023/05/14 04:43:10;;;;;;;0.30;0.30;;;;;;;18.59;59.27;101961.69;5070040;28;20092;-65
2023/05/14 04:45:35;;;;;;;0.10;0.10;;;;;;;17.70;61.79;101957.25;5069421;28;20033;-64
2023/05/14 04:48:03;;;;;;;0.10;0.10;;;;;;;17.75;62.33;101962.75;5069993;28;20159;-64
2023/05/14 04:50:29;;;;;;;0.20;0.20;;;;;;;18.07;61.33;101965.75;5069925;28;20062;-65
2023/05/14 04:52:54;;;;;;;0.20;0.20;;;;;;;17.79;62.04;101966.63;5069892;28;20465;-65
2023/05/14 04:55:20;;;;;;;0.25;0.25;;;;;;;18.37;60.86;101966.25;5070350;28;20028;-66
2023/05/14 04:57:46;;;;;;;0.20;0.20;;;;;;;18.26;60.50;101958.97;5070408;28;20025;-65
2023/05/14 05:00:12;;;;;;;0.20;0.20;;;;;;;18.21;61.77;101972.50;5069978;28;20083;-65
2023/05/14 05:02:37;;;;;;;0.20;0.20;;;;;;;18.65;58.97;101965.31;5070272;28;20041;-65
2023/05/14 05:05:03;;;;;;;0.22;0.22;;;;;;;18.46;59.92;101964.75;5074014;28;20069;-64
2023/05/14 05:07:28;;;;;;;0.20;0.20;;;;;;;19.12;58.12;101970.00;5073123;28;20044;-65
2023/05/14 05:09:53;;;;;;;0.13;0.13;;;;;;;18.24;60.31;101974.72;5074853;28;20052;-65
2023/05/14 05:12:20;;;;;;;0.17;0.17;;;;;;;18.04;61.86;101979.84;5073817;28;20481;-64
2023/05/14 05:14:45;;;;;;;0.25;0.25;;;;;;;17.72;62.47;101978.72;5072985;28;20170;-64
2023/05/14 05:17:11;;;;;;;0.20;0.20;;;;;;;17.92;62.16;101973.66;5073976;28;20032;-64
2023/05/14 05:19:36;;;;;;;0.20;0.20;;;;;;;18.65;60.56;101971.59;5055423;28;20063;-64
2023/05/14 05:22:01;;;;;;;0.20;0.20;;;;;;;18.72;60.32;101974.94;5055068;28;20045;-64
2023/05/14 05:24:27;;;;;;;0.10;0.10;;;;;;;18.63;59.77;101983.81;5055110;28;20037;-65
2023/05/14 05:26:54;;;;;;;0.10;0.10;;;;;;;18.48;60.46;101983.56;5073430;28;20044;-65
2023/05/14 05:29:20;;;;;;;0.10;0.10;;;;;;;18.03;63.00;101984.47;5073439;28;20032;-64
2023/05/14 05:31:45;;;;;;;0.10;0.10;;;;;;;17.77;63.75;101984.28;5074321;28;20225;-64
2023/05/14 05:34:11;;;;;;;0.10;0.10;;;;;;;18.55;61.55;101971.44;5073566;28;20032;-64
2023/05/14 05:36:36;;;;;;;0.13;0.13;;;;;;;18.78;60.93;101976.66;5073514;28;20051;-65
2023/05/14 05:39:02;;;;;;;0.10;0.10;;;;;;;19.21;58.87;101990.31;5073246;28;20446;-64
2023/05/14 05:41:28;;;;;;;0.15;0.15;;;;;;;19.12;59.87;101991.81;5073248;28;20032;-66
2023/05/14 05:43:54;;;;;;;0.13;0.13;;;;;;;18.95;60.44;101982.03;5072287;28;20515;-64
2023/05/14 05:46:20;;;;;;;0.13;0.13;;;;;;;18.94;60.52;101983.97;5070313;28;20024;-66
2023/05/14 05:48:45;;;;;;;0.10;0.10;;;;;;;18.40;62.38;101985.59;5073213;28;20112;-64
2023/05/14 05:51:10;;;;;;;0.13;0.13;;;;;;;18.45;62.22;101982.19;5073147;28;20101;-64
2023/05/14 05:53:36;;;;;;;0.17;0.17;;;;;;;19.29;59.97;101978.94;5072885;28;20044;-65
2023/05/14 05:56:01;;;;;;;0.20;0.20;;;;;;;19.09;60.11;101975.97;5072930;28;20036;-65
2023/05/14 05:58:27;;;;;;;0.20;0.20;;;;;;;19.76;57.94;101972.91;5055758;28;20480;-65
2023/05/14 06:00:52;;;;;;;0.10;0.10;;;;;;;18.81;61.14;101978.88;5073024;28;20620;-67
2023/05/14 06:03:18;;;;;;;0.10;0.10;;;;;;;18.72;61.58;101976.84;5072910;28;20036;-65
2023/05/14 06:05:43;;;;;;;0.10;0.10;;;;;;;19.01;60.77;101970.97;5073189;28;20495;-64
2023/05/14 06:08:08;;;;;;;0.20;0.20;;;;;;;19.96;57.15;101976.66;5072534;28;20032;-64
2023/05/14 06:10:35;;;;;;;0.10;0.10;;;;;;;19.54;58.13;101975.69;5073636;28;20032;-65
2023/05/14 06:13:00;;;;;;;0.20;0.20;;;;;;;19.63;58.94;101979.63;5073247;28;20610;-65
2023/05/14 06:15:26;;;;;;;0.10;0.10;;;;;;;19.49;59.07;101980.28;5072137;28;20116;-66
2023/05/14 06:17:51;;;;;;;0.20;0.20;;;;;;;20.17;56.84;101985.84;5072887;28;20029;-65
2023/05/14 06:20:16;;;;;;;0.10;0.10;;;;;;;20.09;56.98;101984.41;5072594;28;20031;-65
2023/05/14 06:22:42;;;;;;;0.20;0.20;;;;;;;20.29;57.11;101993.88;5055248;28;20036;-65
2023/05/14 06:25:07;;;;;;;0.10;0.10;;;;;;;20.30;56.46;101998.25;5072269;28;20048;-64
2023/05/14 06:27:33;;;;;;;0.15;0.15;;;;;;;20.14;57.00;102000.00;5072467;28;20041;-65
2023/05/14 06:29:58;;;;;;;0.10;0.10;;;;;;;20.51;56.21;102000.88;5072392;28;20037;-65
2023/05/14 06:32:24;;;;;;;0.15;0.15;;;;;;;20.58;55.19;102006.13;5072381;28;20032;-64
2023/05/14 06:34:49;;;;;;;0.20;0.20;;;;;;;20.98;54.81;102004.44;5072710;28;20032;-65
2023/05/14 06:37:14;;;;;;;0.17;0.17;;;;;;;20.56;55.73;102005.56;5072138;28;20635;-65
2023/05/14 06:39:46;;;;;;;0.10;0.10;;;;;;;20.22;56.50;101998.75;5054153;28;20267;-65
2023/05/14 06:42:12;;;;;;;0.77;0.20;;;;;;;20.17;57.35;101994.84;5072150;28;20078;-65
2023/05/14 06:44:37;;;;;;;0.10;0.10;;;;;;;20.65;55.69;101991.13;5071650;28;20040;-64
2023/05/14 06:47:03;;;;;;;0.20;0.20;;;;;;;20.96;54.05;101992.94;5071742;28;20032;-65
2023/05/14 06:49:28;;;;;;;0.13;0.13;;;;;;;20.62;54.00;101994.38;5072534;28;20058;-63
2023/05/14 06:51:53;;;;;;;0.10;0.10;;;;;;;21.29;53.07;101975.31;5072035;28;20052;-64
2023/05/14 06:54:19;;;;;;;0.10;0.10;;;;;;;21.47;52.12;101971.28;5071928;28;20032;-64
2023/05/14 06:56:45;;;;;;;0.10;0.10;;;;;;;20.63;54.40;101987.03;5071332;28;20036;-64
2023/05/14 06:59:11;;;;;;;0.10;0.10;;;;;;;20.91;54.58;101978.44;5071892;28;20066;-66
2023/05/14 07:01:36;;;;;;;0.10;0.10;;;;;;;20.72;54.86;101982.69;5072366;28;20035;-64
2023/05/14 07:04:01;;;;;;;0.17;0.17;;;;;;;20.87;54.89;101980.84;5072061;28;20043;-64
2023/05/14 07:06:27;;;;;;;0.20;0.20;;;;;;;21.80;52.26;101966.16;5071512;28;20070;-64
2023/05/14 07:08:52;;;;;;;0.20;0.20;;;;;;;21.87;51.50;101971.38;5071436;28;20036;-65
2023/05/14 07:11:17;;;;;;;0.15;0.15;;;;;;;21.52;52.08;101977.56;5072240;28;20181;-64
2023/05/14 07:13:43;;;;;;;0.20;0.20;;;;;;;21.78;51.86;101967.50;5071895;28;20441;-63
2023/05/14 07:16:09;;;;;;;0.10;0.10;;;;;;;22.40;50.44;101956.28;5071372;28;20025;-65
2023/05/14 07:18:34;;;;;;;0.13;0.13;;;;;;;22.04;50.85;101969.19;5071554;28;20044;-64
2023/05/14 07:21:00;;;;;;;0.10;0.10;;;;;;;21.33;51.74;101957.28;5071814;28;20037;-64
2023/05/14 07:23:25;;;;;;;0.10;0.10;;;;;;;22.25;50.08;101950.84;5071287;28;20392;-64
2023/05/14 07:25:50;;;;;;;0.10;0.10;;;;;;;21.73;51.59;101956.56;5070925;28;20067;-64
2023/05/14 07:28:16;;;;;;;0.10;0.10;;;;;;;20.91;53.42;101964.78;5071867;28;20051;-63
2023/05/14 07:30:41;;;;;;;0.20;0.20;;;;;;;22.25;49.91;101953.59;5071395;28;20087;-64
2023/05/14 07:33:07;;;;;;;0.10;0.10;;;;;;;21.01;52.13;101956.66;5052908;28;20036;-65
2023/05/14 07:35:32;;;;;;;0.20;0.20;;;;;;;22.06;50.91;101955.22;5070883;28;20051;-64
2023/05/14 07:37:57;;;;;;;0.10;0.10;;;;;;;22.65;48.58;101956.25;5071045;28;20024;-63
2023/05/14 07:40:23;;;;;;;0.10;0.10;;;;;;;22.76;48.97;101957.06;5071176;28;20484;-64
2023/05/14 07:42:49;;;;;;;0.10;0.10;;;;;;;22.03;50.33;101955.78;5070684;28;20024;-64
2023/05/14 07:45:14;;;;;;;0.10;0.10;;;;;;;22.70;48.26;101954.31;5070416;28;20047;-65
2023/05/14 07:47:40;;;;;;;0.10;0.10;;;;;;;22.04;50.84;101958.25;5070106;28;20052;-63
2023/05/14 07:50:06;;;;;;;0.20;0.20;;;;;;;21.53;52.10;101953.78;5069379;28;20020;-64
2023/05/14 07:52:31;;;;;;;0.10;0.10;;;;;;;22.09;50.66;101950.03;5070769;28;20112;-65
2023/05/14 07:54:57;;;;;;;0.10;0.10;;;;;;;22.34;50.01;101946.44;5069849;28;20112;-64
2023/05/14 07:57:22;;;;;;;0.10;0.10;;;;;;;22.99;47.49;101946.28;5051329;28;20035;-64
2023/05/14 07:59:48;;;;;;;0.00;0.00;;;;;;;22.30;49.13;101948.91;5069661;28;20047;-63
2023/05/14 08:02:15;;;;;;;0.10;0.10;;;;;;;21.48;50.87;101954.59;5069410;28;20109;-63
2023/05/14 08:04:40;;;;;;;0.15;0.15;;;;;;;22.06;49.89;101934.16;5069773;28;20039;-65
2023/05/14 08:07:07;;;;;;;0.10;0.10;;;;;;;22.50;48.79;101937.94;5069849;28;20033;-65
2023/05/14 08:09:33;;;;;;;0.10;0.10;;;;;;;22.07;49.33;101940.44;5070196;28;20037;-63
2023/05/14 08:11:58;;;;;;;0.20;0.20;;;;;;;21.81;49.01;101945.09;5069509;28;20044;-63
2023/05/14 08:14:23;;;;;;;0.10;0.10;;;;;;;22.80;47.89;101937.00;5068891;28;20029;-64
2023/05/14 08:16:49;;;;;;;0.10;0.10;;;;;;;22.36;49.16;101944.25;5070096;28;20052;-64
2023/05/14 08:19:14;;;;;;;0.10;0.10;;;;;;;21.22;52.42;101947.44;5049990;28;20043;-63
2023/05/14 08:21:40;;;;;;;0.10;0.10;;;;;;;21.75;50.54;101946.16;5049554;28;20032;-63
2023/05/14 08:24:05;;;;;;;0.10;0.10;;;;;;;22.66;48.81;101944.22;5050010;28;20044;-64
2023/05/14 08:26:31;;;;;;;0.10;0.10;;;;;;;22.63;49.44;101945.59;5041610;28;20243;-63
2023/05/14 08:28:56;;;;;;;0.10;0.10;;;;;;;23.20;47.79;101947.00;5047800;28;20432;-65
2023/05/14 08:31:22;;;;;;;0.10;0.10;;;;;;;23.73;46.89;101948.88;5048546;28;20043;-65
2023/05/14 08:33:47;;;;;;;0.10;0.10;;;;;;;24.17;45.98;101948.81;5048678;28;20028;-64
2023/05/14 08:36:12;;;;;;;0.00;0.00;;;;;;;22.60;48.22;101953.56;5041556;28;20037;-63
2023/05/14 08:38:38;;;;;;;0.10;0.10;;;;;;;22.75;47.53;101939.78;5042993;28;20057;-63
2023/05/14 08:41:05;;;;;;;0.10;0.10;;;;;;;23.27;46.54;101937.34;5049049;28;20719;-64
2023/05/14 08:44:07;;;;;;;0.10;0.10;;;;;;;24.02;45.29;101941.53;5043343;28;20083;-65
2023/05/14 08:46:35;;;;;;;0.10;0.10;;;;;;;23.36;47.83;101951.31;4973671;28;20112;-64
2023/05/14 08:49:27;;;;;;;0.10;0.10;;;;;;;23.42;47.52;101936.47;4984132;28;20042;-63
2023/05/14 08:51:52;;;;;;;0.05;0.05;;;;;;;23.39;46.00;101937.03;4969325;28;20092;-65
2023/05/14 08:54:18;;;;;;;0.10;0.10;;;;;;;23.33;46.62;101938.19;4979522;28;20404;-63
2023/05/14 08:56:46;;;;;;;0.10;0.10;;;;;;;22.59;47.71;101944.50;4975854;28;20396;-62
2023/05/14 08:59:12;;;;;;;0.10;0.10;;;;;;;23.24;46.58;101940.66;4974720;28;20034;-63
2023/05/14 09:01:38;;;;;;;0.00;0.00;;;;;;;23.55;46.48;101939.41;4976495;28;20131;-63
2023/05/14 09:04:07;;;;;;;0.00;0.00;;;;;;;22.86;49.02;101940.59;4976423;28;20052;-64
2023/05/14 09:06:34;;;;;;;0.10;0.10;;;;;;;22.75;49.69;101928.81;4978596;28;20049;-64
2023/05/14 09:08:59;;;;;;;0.10;0.10;;;;;;;23.72;47.15;101930.78;4958502;28;20042;-64
2023/05/14 09:11:25;;;;;;;0.10;0.10;;;;;;;23.34;46.89;101928.84;4977305;28;20037;-63
2023/05/14 09:13:51;;;;;;;0.10;0.10;;;;;;;24.75;44.05;101924.84;4986991;28;20037;-64
2023/05/14 09:16:17;;;;;;;0.00;0.00;;;;;;;25.16;42.75;101928.72;4966312;28;20086;-63
2023/05/14 09:18:44;;;;;;;0.08;0.08;;;;;;;24.50;44.54;101930.63;4974613;28;20041;-65
2023/05/14 09:21:12;;;;;;;0.05;0.05;;;;;;;24.11;45.96;101917.03;4973274;28;20093;-64
2023/05/14 09:23:41;;;;;;;0.00;0.00;;;;;;;24.83;43.44;101919.53;5017587;28;20035;-64
2023/05/14 09:26:06;;;;;;;0.00;0.00;;;;;;;25.14;42.86;101912.50;5058596;28;20051;-64
2023/05/14 09:28:31;;;;;;;0.10;0.10;;;;;;;24.43;45.72;101920.78;5057827;28;20025;-65
2023/05/14 09:30:57;;;;;;;0.00;0.00;;;;;;;23.59;46.93;101914.16;5059824;28;20025;-64
2023/05/14 09:33:27;;;;;;;0.00;0.00;;;;;;;23.91;46.81;101919.91;5055148;28;20036;-64
2023/05/14 09:35:57;;;;;;;0.00;0.00;;;;;;;24.67;44.80;101912.56;5052459;28;20048;-64
2023/05/14 09:38:26;;;;;;;;;;;;;;;26.03;42.73;101911.41;5054103;28;20032;-64
2023/05/14 09:40:52;;;;;;;0.10;0.10;;;;;;;24.55;46.10;101914.88;5066549;28;19913;-65
2023/05/14 09:43:17;;;;;;;0.10;0.10;;;;;;;23.98;47.00;101901.19;5049662;28;20519;-64
2023/05/14 09:45:43;;;;;;;0.00;0.00;;;;;;;24.23;47.01;101903.72;5048380;28;20041;-64
2023/05/14 09:48:08;;;;;;;0.10;0.10;;;;;;;23.59;48.22;101901.22;5054042;28;20492;-62
2023/05/14 09:50:41;;;;;;;0.10;0.10;;;;;;;25.35;45.22;101902.06;5060327;28;20032;-63
2023/05/14 09:53:07;;;;;;;0.10;0.10;;;;;;;25.31;44.19;101895.50;5073083;28;20136;-63
2023/05/14 09:55:32;;;;;;;0.00;0.00;;;;;;;24.87;45.00;101895.84;5051433;28;20059;-65
2023/05/14 09:57:57;;;;;;;0.00;0.00;;;;;;;25.31;43.19;101891.94;5058612;28;20029;-63
2023/05/14 10:00:23;;;;;;;0.10;0.10;;;;;;;25.03;42.47;101899.19;5059764;28;20032;-63
2023/05/14 10:02:51;;;;;;;0.10;0.10;;;;;;;24.89;44.83;101904.63;5053964;28;20033;-65
2023/05/14 10:05:19;;;;;;;0.00;0.00;;;;;;;24.83;44.69;101897.53;5054886;28;20488;-63
2023/05/14 10:07:49;;;;;;;0.00;0.00;;;;;;;25.46;43.43;101891.72;5070832;28;20055;-63
2023/05/14 10:10:20;;;;;;;0.00;0.00;;;;;;;26.02;42.45;101884.97;5071844;28;20052;-64
2023/05/14 10:12:52;;;;;;;0.00;0.00;;;;;;;26.34;41.50;101877.81;5069445;28;20021;-62
2023/05/14 10:15:45;;;;;;;0.00;0.00;;;;;;;26.24;41.28;101889.03;5072095;28;20396;-64
2023/05/14 10:18:15;;;;;;;0.00;0.00;;;;;;;25.61;41.52;101877.72;4956403;28;20042;-65
2023/05/14 10:20:41;;;;;;;0.00;0.00;;;;;;;26.41;40.21;101878.22;4951019;28;20043;-63
2023/05/14 10:23:06;;;;;;;0.00;0.00;;;;;;;25.78;41.14;101876.06;4950978;28;20050;-63
2023/05/14 10:25:34;;;;;;;0.00;0.00;;;;;;;25.91;40.62;101880.78;4950844;29;20023;-64
2023/05/14 10:28:01;;;;;;;0.00;0.00;;;;;;;26.18;40.89;101874.50;4963742;28;20514;-64
2023/05/14 10:30:26;;;;;;;0.00;0.00;;;;;;;26.52;40.35;101866.69;4971545;28;20118;-65
2023/05/14 10:33:12;;;;;;;0.00;0.00;;;;;;;27.52;37.83;101871.09;4984919;28;20041;-64
2023/05/14 10:35:59;;;;;;;0.00;0.00;;;;;;;27.56;37.60;101869.34;4984829;28;20054;-63
2023/05/14 10:38:28;;;;;;;0.00;0.00;;;;;;;28.27;36.94;101871.91;4984416;28;20026;-64
2023/05/14 10:41:05;;;;;;;0.00;0.00;;;;;;;27.38;38.31;101864.84;4976435;28;20034;-62
2023/05/14 10:43:36;;;;;;;0.00;0.00;;;;;;;28.11;36.64;101865.16;4978855;28;20077;-64
2023/05/14 10:46:02;;;;;;;0.00;0.00;;;;;;;26.62;38.35;101862.88;4980025;28;20051;-64
2023/05/14 10:48:28;;;;;;;0.00;0.00;;;;;;;26.19;40.42;101859.63;4973529;28;20046;-64
2023/05/14 10:50:55;;;;;;;0.00;0.00;;;;;;;27.77;37.29;101853.91;4969800;28;20039;-64
2023/05/14 10:53:32;;;;;;;0.00;0.00;;;;;;;27.19;37.40;101844.81;4971609;28;20138;-64
2023/05/14 10:55:57;;;;;;;0.00;0.00;;;;;;;28.72;35.28;101853.19;5046645;28;20040;-63
2023/05/14 10:58:22;;;;;;;0.00;0.00;;;;;;;28.56;34.18;101850.06;5072028;28;20384;-64
2023/05/14 11:00:53;;;;;;;0.00;0.00;;;;;;;29.54;33.44;101844.00;5069126;28;20041;-63
2023/05/14 11:03:19;;;;;;;0.25;0.00;;;;;;;29.96;32.26;101834.78;5071509;28;20029;-63
2023/05/14 11:05:45;;;;;;;0.00;0.00;;;;;;;29.97;30.00;101834.47;5068177;28;20562;-65
2023/05/14 11:08:11;;;;;;;0.00;0.00;;;;;;;30.34;29.57;101830.09;5063890;28;20044;-63
2023/05/14 11:10:38;;;;;;;0.00;0.00;;;;;;;29.65;30.42;101832.22;5062850;28;20028;-65
2023/05/14 11:13:03;;;;;;;0.00;0.00;;;;;;;29.50;31.13;101830.78;5058139;28;20036;-63
2023/05/14 11:15:29;;;;;;;0.00;0.00;;;;;;;29.08;31.14;101830.78;5061355;28;20542;-64
2023/05/14 11:17:55;;;;;;;0.00;0.00;;;;;;;29.88;30.84;101828.13;5069582;28;20043;-63
2023/05/14 11:20:20;;;;;;;0.00;0.00;;;;;;;29.30;30.57;101820.41;5070893;28;20024;-64